createdAt,value
2023-01-23T00:01:07.227Z,101365.80
2023-01-23T00:03:34.404Z,101363.00
2023-01-23T00:06:05.697Z,101363.93
2023-01-23T00:08:32.906Z,101363.96
2023-01-23T00:10:59.959Z,101362.90
2023-01-23T00:13:26.818Z,101361.72
2023-01-23T00:15:53.923Z,101361.96
2023-01-23T00:18:20.910Z,101363.70
2023-01-23T00:20:47.865Z,101365.02
2023-01-23T00:23:14.813Z,101367.52
2023-01-23T00:25:41.845Z,101364.96
2023-01-23T00:28:08.814Z,101364.40
2023-01-23T00:30:35.663Z,101366.18
2023-01-23T00:33:02.621Z,101368.54
2023-01-23T00:35:29.513Z,101367.04
2023-01-23T00:37:56.534Z,101368.52
2023-01-23T00:40:23.488Z,101363.40
2023-01-23T00:42:50.434Z,101367.77
2023-01-23T00:45:17.390Z,101368.61
2023-01-23T00:47:44.320Z,101369.86
2023-01-23T00:50:11.739Z,101369.84
2023-01-23T00:52:38.742Z,101370.83
2023-01-23T00:55:06.541Z,101374.83
2023-01-23T00:57:33.532Z,101372.20
2023-01-23T01:00:00.789Z,101369.39
2023-01-23T01:02:27.966Z,101366.79
2023-01-23T01:04:55.132Z,101363.64
2023-01-23T01:07:22.921Z,101357.36
2023-01-23T01:09:49.851Z,101353.56
2023-01-23T01:12:16.796Z,101355.75
2023-01-23T01:14:43.969Z,101359.56
2023-01-23T01:17:11.008Z,101360.96
2023-01-23T01:19:37.974Z,101361.98
2023-01-23T01:22:04.918Z,101361.02
2023-01-23T01:24:31.785Z,101357.38
2023-01-23T01:26:59.154Z,101355.80
2023-01-23T01:29:26.069Z,101355.29
2023-01-23T01:31:53.196Z,101352.31
2023-01-23T01:34:21.569Z,101357.40
2023-01-23T01:36:51.762Z,101358.91
2023-01-23T01:39:19.064Z,101354.96
2023-01-23T01:41:46.173Z,101351.06
2023-01-23T01:44:18.690Z,101351.16
2023-01-23T01:46:46.057Z,101351.60
2023-01-23T01:49:22.044Z,101355.23
2023-01-23T01:52:02.347Z,101353.02
2023-01-23T01:54:38.884Z,101354.13
2023-01-23T01:57:16.049Z,101350.36
2023-01-23T01:59:51.292Z,101345.74
2023-01-23T02:02:28.781Z,101345.36
2023-01-23T02:05:23.469Z,101346.19
2023-01-23T02:08:20.915Z,101346.16
2023-01-23T02:10:48.072Z,101343.60
2023-01-23T02:13:39.598Z,101341.24
2023-01-23T02:16:08.577Z,101340.98
2023-01-23T02:18:39.211Z,101343.89
2023-01-23T02:21:07.467Z,101344.67
2023-01-23T02:23:44.088Z,101342.95
2023-01-23T02:26:26.163Z,101340.53
2023-01-23T02:28:53.824Z,101348.04
2023-01-23T02:31:22.515Z,101340.77
2023-01-23T02:33:54.480Z,101341.13
2023-01-23T02:36:24.236Z,101339.73
2023-01-23T02:39:06.630Z,101341.73
2023-01-23T02:41:36.616Z,101342.09
2023-01-23T02:44:18.455Z,101347.35
2023-01-23T02:46:49.247Z,101350.84
2023-01-23T02:49:16.711Z,101348.16
2023-01-23T02:51:43.611Z,101348.00
2023-01-23T02:54:10.717Z,101349.14
2023-01-23T02:56:38.989Z,101348.73
2023-01-23T02:59:24.775Z,101347.79
2023-01-23T03:01:52.075Z,101348.42
2023-01-23T03:04:19.349Z,101344.46
2023-01-23T03:06:46.343Z,101345.97
2023-01-23T03:09:14.737Z,101344.23
2023-01-23T03:11:42.526Z,101351.45
2023-01-23T03:14:11.750Z,101352.61
2023-01-23T03:16:38.806Z,101352.17
2023-01-23T03:19:08.400Z,101348.67
2023-01-23T03:21:37.115Z,101348.57
2023-01-23T03:24:05.757Z,101349.04
2023-01-23T03:26:32.798Z,101347.45
2023-01-23T03:29:18.448Z,101348.95
2023-01-23T03:31:45.687Z,101347.15
2023-01-23T03:34:12.702Z,101350.99
2023-01-23T03:36:41.478Z,101351.86
2023-01-23T03:39:27.465Z,101354.85
2023-01-23T03:41:54.721Z,101357.15
2023-01-23T03:44:22.286Z,101357.27
2023-01-23T03:46:50.370Z,101361.73
2023-01-23T03:49:17.621Z,101364.52
2023-01-23T03:51:44.879Z,101371.02
2023-01-23T03:54:12.039Z,101371.80
2023-01-23T03:56:39.105Z,101377.37
2023-01-23T03:59:06.864Z,101379.31
2023-01-23T04:01:34.936Z,101384.77
2023-01-23T04:04:03.218Z,101387.83
2023-01-23T04:06:30.473Z,101387.41
2023-01-23T04:08:58.472Z,101385.46
2023-01-23T04:11:26.550Z,101381.46
2023-01-23T04:13:54.427Z,101383.10
2023-01-23T04:16:24.804Z,101381.99
2023-01-23T04:18:51.781Z,101384.02
2023-01-23T04:21:18.683Z,101386.68
2023-01-23T04:23:45.635Z,101386.73
2023-01-23T04:26:13.301Z,101384.86
2023-01-23T04:28:40.167Z,101387.05
2023-01-23T04:31:09.428Z,101387.04
2023-01-23T04:33:36.793Z,101389.76
2023-01-23T04:36:05.454Z,101391.28
2023-01-23T04:38:33.179Z,101391.27
2023-01-23T04:41:24.641Z,101396.46
2023-01-23T04:43:57.544Z,101401.56
2023-01-23T04:46:24.598Z,101408.69
2023-01-23T04:49:04.954Z,101410.81
2023-01-23T04:51:32.647Z,101409.86
2023-01-23T04:53:59.515Z,101412.06
2023-01-23T04:56:26.597Z,101411.40
2023-01-23T04:58:53.957Z,101412.82
2023-01-23T05:01:23.369Z,101411.07
2023-01-23T05:03:52.565Z,101412.98
2023-01-23T05:06:19.936Z,101414.05
2023-01-23T05:08:47.408Z,101416.14
2023-01-23T05:11:43.438Z,101416.57
2023-01-23T05:14:12.328Z,101419.83
2023-01-23T05:16:40.375Z,101422.98
2023-01-23T05:19:29.020Z,101425.80
2023-01-23T05:21:57.107Z,101425.64
2023-01-23T05:24:25.279Z,101429.55
2023-01-23T05:26:54.885Z,101431.93
2023-01-23T05:29:21.814Z,101431.89
2023-01-23T05:31:55.545Z,101434.30
2023-01-23T05:34:37.955Z,101429.30
2023-01-23T05:37:11.665Z,101428.99
2023-01-23T05:39:39.185Z,101431.48
2023-01-23T05:42:06.029Z,101439.00
2023-01-23T05:44:51.843Z,101436.45
2023-01-23T05:47:26.377Z,101439.27
2023-01-23T05:49:54.815Z,101439.52
2023-01-23T05:52:24.577Z,101444.25
2023-01-23T05:54:51.860Z,101443.02
2023-01-23T05:57:19.199Z,101445.38
2023-01-23T06:00:09.957Z,101444.83
2023-01-23T06:02:42.859Z,101450.11
2023-01-23T06:05:28.672Z,101457.41
2023-01-23T06:08:00.344Z,101461.00
2023-01-23T06:10:27.466Z,101463.33
2023-01-23T06:12:54.650Z,101460.06
2023-01-23T06:15:22.288Z,101458.95
2023-01-23T06:17:50.195Z,101459.39
2023-01-23T06:20:17.642Z,101458.21
2023-01-23T06:22:45.801Z,101452.08
2023-01-23T06:25:13.668Z,101454.63
2023-01-23T06:27:41.139Z,101456.56
2023-01-23T06:30:10.131Z,101458.73
2023-01-23T06:32:39.953Z,101463.05
2023-01-23T06:35:08.616Z,101466.13
2023-01-23T06:37:38.453Z,101465.39
2023-01-23T06:40:06.553Z,101463.95
2023-01-23T06:42:33.896Z,101466.09
2023-01-23T06:45:00.989Z,101468.34
2023-01-23T06:47:28.100Z,101468.73
2023-01-23T06:49:59.039Z,101470.21
2023-01-23T06:52:26.100Z,101477.50
2023-01-23T06:54:53.003Z,101477.61
2023-01-23T06:57:20.000Z,101483.47
2023-01-23T06:59:47.872Z,101484.80
2023-01-23T07:02:15.551Z,101492.35
2023-01-23T07:04:51.094Z,101492.55
2023-01-23T07:07:18.303Z,101492.78
2023-01-23T07:09:45.708Z,101490.89
2023-01-23T07:12:19.055Z,101495.27
2023-01-23T07:14:46.461Z,101494.67
2023-01-23T07:17:16.992Z,101497.29
2023-01-23T07:19:44.155Z,101498.03
2023-01-23T07:22:12.741Z,101495.02
2023-01-23T07:24:40.126Z,101494.57
2023-01-23T07:27:07.151Z,101497.61
2023-01-23T07:29:34.040Z,101497.14
2023-01-23T07:32:03.942Z,101495.84
2023-01-23T07:34:30.812Z,101498.20
2023-01-23T07:36:57.719Z,101499.94
2023-01-23T07:39:24.781Z,101502.73
2023-01-23T07:41:51.760Z,101502.14
2023-01-23T07:44:20.213Z,101504.09
2023-01-23T07:46:47.605Z,101507.05
2023-01-23T07:49:15.138Z,101508.80
2023-01-23T07:51:42.213Z,101512.44
2023-01-23T07:54:09.241Z,101517.45
2023-01-23T07:56:36.311Z,101519.54
2023-01-23T07:59:03.449Z,101521.25
2023-01-23T08:01:30.509Z,101521.05
2023-01-23T08:03:57.428Z,101524.45
2023-01-23T08:06:24.407Z,101529.73
2023-01-23T08:08:51.365Z,101533.29
2023-01-23T08:11:18.417Z,101532.45
2023-01-23T08:13:49.244Z,101538.30
2023-01-23T08:16:16.247Z,101540.83
2023-01-23T08:18:43.152Z,101542.30
2023-01-23T08:21:10.239Z,101538.55
2023-01-23T08:23:37.262Z,101541.50
2023-01-23T08:26:05.741Z,101543.77
2023-01-23T08:28:32.899Z,101544.64
2023-01-23T08:31:06.714Z,101547.86
2023-01-23T08:33:34.608Z,101547.55
2023-01-23T08:36:01.560Z,101546.31
2023-01-23T08:38:28.586Z,101545.48
2023-01-23T08:40:58.904Z,101540.33
2023-01-23T08:43:25.859Z,101544.92
2023-01-23T08:45:54.384Z,101542.28
2023-01-23T08:48:22.395Z,101542.64
2023-01-23T08:50:49.727Z,101540.40
2023-01-23T08:53:16.935Z,101541.84
2023-01-23T08:55:43.994Z,101540.48
2023-01-23T08:58:13.254Z,101538.17
2023-01-23T09:00:40.822Z,101538.45
2023-01-23T09:03:09.903Z,101537.19
2023-01-23T09:05:38.448Z,101538.64
2023-01-23T09:08:05.445Z,101543.30
2023-01-23T09:10:32.357Z,101543.30
2023-01-23T09:12:59.302Z,101543.18
2023-01-23T09:15:26.272Z,101540.88
2023-01-23T09:17:53.244Z,101543.13
2023-01-23T09:20:20.535Z,101542.34
2023-01-23T09:22:47.717Z,101540.22
2023-01-23T09:25:14.666Z,101538.40
2023-01-23T09:27:41.853Z,101536.92
2023-01-23T09:30:09.751Z,101535.17
2023-01-23T09:32:36.687Z,101532.48
2023-01-23T09:35:04.623Z,101529.91
2023-01-23T09:37:51.079Z,101531.36
2023-01-23T09:40:19.481Z,101531.20
2023-01-23T09:42:46.762Z,101530.52
2023-01-23T09:45:17.292Z,101531.86
2023-01-23T09:47:50.174Z,101533.14
2023-01-23T09:50:25.937Z,101523.36
2023-01-23T09:52:58.897Z,101524.73
2023-01-23T09:55:45.728Z,101525.20
2023-01-23T09:58:18.926Z,101525.11
2023-01-23T10:00:46.521Z,101521.16
2023-01-23T10:03:15.761Z,101518.61
2023-01-23T10:06:01.119Z,101514.94
2023-01-23T10:08:40.692Z,101510.83
2023-01-23T10:11:39.059Z,101518.27
2023-01-23T10:14:36.986Z,101524.48
2023-01-23T10:17:27.643Z,101525.70
2023-01-23T10:20:20.079Z,101527.77
2023-01-23T10:23:01.010Z,101521.80
2023-01-23T10:25:29.690Z,101523.02
2023-01-23T10:27:58.789Z,101524.95
2023-01-23T10:30:35.285Z,101530.92
2023-01-23T10:33:10.022Z,101522.27
2023-01-23T10:35:39.625Z,101526.98
2023-01-23T10:38:34.209Z,101521.65
2023-01-23T10:41:13.540Z,101512.40
2023-01-23T10:43:41.529Z,101509.14
2023-01-23T10:46:16.348Z,101505.67
2023-01-23T10:48:50.357Z,101503.98
2023-01-23T10:51:39.722Z,101500.96
2023-01-23T10:54:22.679Z,101499.30
2023-01-23T10:56:58.807Z,101494.81
2023-01-23T10:59:37.320Z,101496.25
2023-01-23T11:02:13.713Z,101493.19
2023-01-23T11:04:45.398Z,101494.25
2023-01-23T11:07:20.968Z,101492.48
2023-01-23T11:10:18.516Z,101491.27
2023-01-23T11:12:50.146Z,101495.12
2023-01-23T11:15:21.470Z,101494.03
2023-01-23T11:17:49.553Z,101495.61
2023-01-23T11:20:40.073Z,101492.86
2023-01-23T11:23:12.884Z,101494.91
2023-01-23T11:25:40.787Z,101492.98
2023-01-23T11:28:27.080Z,101490.60
2023-01-23T11:31:14.701Z,101495.95
2023-01-23T11:34:04.257Z,101492.52
2023-01-23T11:36:55.274Z,101486.06
2023-01-23T11:39:44.110Z,101483.21
2023-01-23T11:42:11.536Z,101478.39
2023-01-23T11:44:45.891Z,101480.59
2023-01-23T11:47:19.440Z,101480.09
2023-01-23T11:50:04.490Z,101483.57
2023-01-23T11:52:34.736Z,101482.09
2023-01-23T11:55:26.981Z,101482.98
2023-01-23T11:58:49.340Z,101486.70
2023-01-23T12:02:03.055Z,101482.34
2023-01-23T12:05:08.326Z,101485.10
2023-01-23T12:08:07.555Z,101487.20
2023-01-23T12:10:53.279Z,101485.96
2023-01-23T12:13:58.157Z,101483.71
2023-01-23T12:16:40.615Z,101484.69
2023-01-23T12:19:44.825Z,101481.09
2023-01-23T12:22:39.908Z,101480.92
2023-01-23T12:25:38.948Z,101483.86
2023-01-23T12:28:35.636Z,101482.47
2023-01-23T12:31:04.666Z,101483.05
2023-01-23T12:33:48.199Z,101488.90
2023-01-23T12:36:30.473Z,101485.00
2023-01-23T12:39:22.463Z,101487.92
2023-01-23T12:41:51.133Z,101487.70
2023-01-23T12:44:38.479Z,101488.28
2023-01-23T12:47:13.237Z,101488.30
2023-01-23T12:49:45.691Z,101492.00
2023-01-23T12:52:36.888Z,101496.02
2023-01-23T12:55:15.486Z,101491.63
2023-01-23T12:58:07.988Z,101490.32
2023-01-23T13:00:41.610Z,101496.47
2023-01-23T13:03:34.136Z,101496.95
2023-01-23T13:06:10.421Z,101498.64
2023-01-23T13:08:58.016Z,101497.16
2023-01-23T13:11:45.089Z,101499.88
2023-01-23T13:15:00.592Z,101500.05
2023-01-23T13:17:29.359Z,101500.88
2023-01-23T13:20:38.503Z,101500.88
2023-01-23T13:23:27.498Z,101500.13
2023-01-23T13:26:16.450Z,101499.05
2023-01-23T13:28:56.767Z,101501.75
2023-01-23T13:31:45.451Z,101500.95
2023-01-23T13:34:16.148Z,101499.07
2023-01-23T13:36:49.822Z,101501.41
2023-01-23T13:39:16.894Z,101501.60
2023-01-23T13:41:51.423Z,101502.48
2023-01-23T13:44:35.737Z,101506.30
2023-01-23T14:22:42.248Z,101511.27
2023-01-23T14:25:17.491Z,101512.69
2023-01-23T14:27:53.321Z,101512.06
2023-01-23T14:30:27.078Z,101511.84
2023-01-23T14:32:54.817Z,101511.02
2023-01-23T14:35:26.896Z,101511.58
2023-01-23T14:37:54.865Z,101512.96
2023-01-23T14:40:27.706Z,101514.33
2023-01-23T14:43:04.002Z,101518.39
2023-01-23T14:45:34.230Z,101520.20
2023-01-23T14:48:06.342Z,101520.70
2023-01-23T14:50:33.983Z,101515.46
2023-01-23T14:53:05.454Z,101512.90
2023-01-23T14:55:35.544Z,101511.88
2023-01-23T14:58:02.583Z,101512.70
2023-01-23T15:00:29.598Z,101508.76
2023-01-23T15:02:56.837Z,101509.41
2023-01-23T15:05:27.037Z,101510.22
2023-01-23T15:08:03.230Z,101510.14
2023-01-23T15:10:32.701Z,101508.20
2023-01-23T15:13:05.116Z,101513.57
2023-01-23T15:15:33.332Z,101516.33
2023-01-23T15:18:01.523Z,101517.04
2023-01-23T15:20:29.802Z,101519.83
2023-01-23T15:22:57.825Z,101521.56
2023-01-23T15:25:35.221Z,101524.75
2023-01-23T15:28:02.694Z,101526.23
2023-01-23T15:30:29.966Z,101528.67
2023-01-23T15:33:06.220Z,101532.00
2023-01-23T15:35:37.612Z,101534.36
2023-01-23T15:38:08.619Z,101535.84
2023-01-23T15:40:39.230Z,101538.42
2023-01-23T15:43:18.895Z,101540.25
2023-01-23T15:45:47.292Z,101541.02
2023-01-23T15:48:15.757Z,101544.39
2023-01-23T15:50:43.865Z,101543.95
2023-01-23T15:53:13.178Z,101547.75
2023-01-23T15:55:41.660Z,101548.64
2023-01-23T15:58:14.766Z,101550.98
2023-01-23T16:00:42.952Z,101553.31
2023-01-23T16:03:14.776Z,101554.77
2023-01-23T16:05:43.221Z,101555.18
2023-01-23T16:08:29.604Z,101552.34
2023-01-23T16:10:58.187Z,101555.55
2023-01-23T16:13:26.567Z,101555.93
2023-01-23T16:15:56.714Z,101555.59
2023-01-23T16:18:24.928Z,101556.29
2023-01-23T16:20:54.417Z,101551.74
2023-01-23T16:23:31.305Z,101550.58
2023-01-23T16:26:04.783Z,101549.89
2023-01-23T16:28:33.259Z,101553.98
2023-01-23T16:31:01.980Z,101548.81
2023-01-23T16:33:30.947Z,101551.59
2023-01-23T16:35:59.557Z,101553.92
2023-01-23T16:38:28.581Z,101552.58
2023-01-23T16:40:59.716Z,101558.98
2023-01-23T16:43:28.383Z,101560.19
2023-01-23T16:45:57.817Z,101562.59
2023-01-23T16:48:27.922Z,101562.06
2023-01-23T16:51:24.337Z,101564.19
2023-01-23T16:53:53.948Z,101564.27
2023-01-23T16:56:30.461Z,101566.52
2023-01-23T16:58:58.659Z,101564.84
2023-01-23T17:01:27.096Z,101563.58
2023-01-23T17:04:00.003Z,101566.35
2023-01-23T17:06:28.159Z,101568.92
2023-01-23T17:08:57.257Z,101568.73
2023-01-23T17:11:39.995Z,101572.10
2023-01-23T17:14:29.327Z,101572.30
2023-01-23T17:17:07.287Z,101573.08
2023-01-23T17:19:37.653Z,101575.95
2023-01-23T17:22:06.262Z,101577.88
2023-01-23T17:24:34.438Z,101577.42
2023-01-23T17:27:03.206Z,101579.58
2023-01-23T17:29:31.787Z,101577.41
2023-01-23T17:32:00.065Z,101576.93
2023-01-23T17:34:29.273Z,101577.09
2023-01-23T17:36:57.518Z,101578.46
2023-01-23T17:39:26.086Z,101576.64
2023-01-23T17:41:54.390Z,101575.45
2023-01-23T17:44:22.629Z,101575.20
2023-01-23T17:46:54.788Z,101576.55
2023-01-23T17:49:29.953Z,101576.77
2023-01-23T17:51:59.452Z,101577.02
2023-01-23T17:54:27.744Z,101572.84
2023-01-23T17:57:01.126Z,101572.98
2023-01-23T17:59:29.404Z,101569.55
2023-01-23T18:01:58.075Z,101571.55
2023-01-23T18:04:30.474Z,101567.06
2023-01-23T18:06:59.286Z,101569.60
2023-01-23T18:09:28.474Z,101568.96
2023-01-23T18:11:59.169Z,101568.81
2023-01-23T18:14:47.837Z,101570.61
2023-01-23T18:17:26.275Z,101571.63
2023-01-23T18:19:54.987Z,101568.48
2023-01-23T18:22:23.381Z,101566.42
2023-01-23T18:24:52.040Z,101564.44
2023-01-23T18:27:26.661Z,101559.62
2023-01-23T18:30:17.552Z,101562.42
2023-01-23T18:33:11.730Z,101564.45
2023-01-23T18:36:12.675Z,101560.70
2023-01-23T18:39:03.349Z,101564.05
2023-01-23T18:41:31.752Z,101555.60
2023-01-23T18:44:15.165Z,101558.04
2023-01-23T18:46:43.653Z,101558.31
2023-01-23T18:49:27.754Z,101560.10
2023-01-23T18:52:18.280Z,101556.92
2023-01-23T18:54:58.940Z,101556.08
2023-01-23T18:57:28.093Z,101559.54
2023-01-23T19:00:05.985Z,101557.83
2023-01-23T19:02:50.483Z,101557.50
2023-01-23T19:05:30.061Z,101559.63
2023-01-23T19:08:00.045Z,101557.64
2023-01-23T19:10:47.705Z,101557.01
2023-01-23T19:13:29.797Z,101558.60
2023-01-23T19:16:07.458Z,101557.27
2023-01-23T19:18:49.567Z,101560.79
2023-01-23T19:21:23.132Z,101561.84
2023-01-23T19:24:00.617Z,101554.13
2023-01-23T19:26:32.163Z,101553.70
2023-01-23T19:29:05.656Z,101556.10
2023-01-23T19:31:43.684Z,101558.30
2023-01-23T19:34:16.300Z,101557.14
2023-01-23T19:36:44.907Z,101555.36
2023-01-23T19:39:13.579Z,101557.02
2023-01-23T19:41:44.137Z,101554.48
2023-01-23T19:44:13.721Z,101553.17
2023-01-23T19:46:42.754Z,101553.36
2023-01-23T19:49:11.418Z,101548.48
2023-01-23T19:51:40.537Z,101544.27
2023-01-23T19:54:12.680Z,101542.04
2023-01-23T19:56:41.083Z,101542.46
2023-01-23T19:59:09.681Z,101541.98
2023-01-23T20:01:46.796Z,101542.85
2023-01-23T20:04:17.806Z,101545.11
2023-01-23T20:06:52.272Z,101546.90
2023-01-23T20:09:21.423Z,101549.84
2023-01-23T20:12:00.437Z,101548.20
2023-01-23T20:14:31.808Z,101548.77
2023-01-23T20:17:04.748Z,101554.23
2023-01-23T20:19:34.186Z,101555.30
2023-01-23T20:22:05.579Z,101551.34
2023-01-23T20:24:36.781Z,101549.72
2023-01-23T20:27:05.365Z,101553.23
2023-01-23T20:29:34.765Z,101555.48
2023-01-23T20:32:04.112Z,101554.67
2023-01-23T20:34:34.098Z,101547.35
2023-01-23T20:37:02.934Z,101553.29
2023-01-23T20:39:38.797Z,101554.52
2023-01-23T20:42:08.859Z,101553.89
2023-01-23T20:44:38.414Z,101553.52
2023-01-23T20:47:10.311Z,101556.06
2023-01-23T20:49:40.516Z,101555.08
2023-01-23T20:52:29.978Z,101557.60
2023-01-23T20:55:00.227Z,101557.63
2023-01-23T20:57:51.835Z,101558.02
2023-01-23T21:00:24.136Z,101554.36
2023-01-23T21:02:53.275Z,101554.25
2023-01-23T21:05:22.101Z,101549.77
2023-01-23T21:07:50.969Z,101549.34
2023-01-23T21:10:19.732Z,101548.52
2023-01-23T21:12:48.281Z,101549.52
2023-01-23T21:15:20.347Z,101548.38
2023-01-23T21:17:49.038Z,101551.80
2023-01-23T21:20:20.683Z,101548.46
2023-01-23T21:22:50.993Z,101548.80
2023-01-23T21:25:22.205Z,101545.25
2023-01-23T21:27:50.876Z,101549.23
2023-01-23T21:30:19.014Z,101549.99
2023-01-23T21:32:48.023Z,101547.48
2023-01-23T21:35:17.760Z,101551.29
2023-01-23T21:37:50.017Z,101550.13
2023-01-23T21:40:18.763Z,101548.44
2023-01-23T21:42:48.188Z,101547.61
2023-01-23T21:45:19.839Z,101548.07
2023-01-23T21:47:48.092Z,101545.39
2023-01-23T21:50:20.046Z,101543.27
2023-01-23T21:52:48.667Z,101540.23
2023-01-23T21:55:16.969Z,101541.67
2023-01-23T21:57:45.070Z,101540.75
2023-01-23T22:00:32.499Z,101541.08
2023-01-23T22:03:00.639Z,101544.77
2023-01-23T22:05:29.515Z,101539.75
2023-01-23T22:07:57.716Z,101536.55
2023-01-23T22:10:26.329Z,101534.85
2023-01-23T22:12:54.794Z,101537.35
2023-01-23T22:15:23.615Z,101541.20
2023-01-23T22:17:52.212Z,101537.85
2023-01-23T22:20:20.477Z,101539.20
2023-01-23T22:22:48.724Z,101535.52
2023-01-23T22:25:17.087Z,101536.86
2023-01-23T22:27:45.093Z,101536.45
2023-01-23T22:30:13.483Z,101539.02
2023-01-23T22:32:41.728Z,101542.41
2023-01-23T22:35:13.023Z,101540.91
2023-01-23T22:37:43.621Z,101541.75
2023-01-23T22:40:11.947Z,101542.46
2023-01-23T22:42:40.053Z,101544.14
2023-01-23T22:45:09.961Z,101542.08
2023-01-23T22:47:38.485Z,101540.70
2023-01-23T22:50:07.438Z,101538.61
2023-01-23T22:52:36.741Z,101536.08
2023-01-23T22:55:05.333Z,101539.82
2023-01-23T22:57:33.398Z,101537.91
2023-01-23T23:00:02.746Z,101536.05
2023-01-23T23:02:31.516Z,101539.73
2023-01-23T23:04:59.704Z,101538.77
2023-01-23T23:07:30.193Z,101539.48
2023-01-23T23:09:58.718Z,101540.14
2023-01-23T23:12:27.621Z,101543.40
2023-01-23T23:14:56.194Z,101543.05
2023-01-23T23:17:24.378Z,101541.91
2023-01-23T23:19:52.477Z,101538.76
2023-01-23T23:22:20.617Z,101540.06
2023-01-23T23:24:48.645Z,101542.80
2023-01-23T23:27:16.799Z,101545.30
2023-01-23T23:29:45.051Z,101542.45
2023-01-23T23:32:13.195Z,101545.81
2023-01-23T23:34:41.512Z,101541.59
2023-01-23T23:37:09.524Z,101547.66
2023-01-23T23:39:37.804Z,101545.13
2023-01-23T23:42:05.980Z,101537.16
2023-01-23T23:44:34.332Z,101542.81
2023-01-23T23:47:02.455Z,101542.16
2023-01-23T23:49:30.713Z,101539.36
2023-01-23T23:52:02.086Z,101543.86
2023-01-23T23:54:30.270Z,101541.15
2023-01-23T23:56:58.388Z,101539.67
2023-01-23T23:59:26.680Z,101538.08
